sensor_id;sensor_type;location;lat;lon;timestamp;temperature;humidity
18160;DHT22;9205;52.032;4.314;2022-08-01T00:02:07;19.90;99.90
18160;DHT22;9205;52.032;4.314;2022-08-01T00:04:37;19.90;99.90
18160;DHT22;9205;52.032;4.314;2022-08-01T00:07:05;19.90;99.90
18160;DHT22;9205;52.032;4.314;2022-08-01T00:09:32;20.00;99.90
18160;DHT22;9205;52.032;4.314;2022-08-01T00:11:59;20.00;99.90
18160;DHT22;9205;52.032;4.314;2022-08-01T00:14:27;19.90;99.90
18160;DHT22;9205;52.032;4.314;2022-08-01T00:16:55;19.90;99.90
18160;DHT22;9205;52.032;4.314;2022-08-01T00:19:23;19.90;99.90
18160;DHT22;9205;52.032;4.314;2022-08-01T00:21:51;19.80;99.90
18160;DHT22;9205;52.032;4.314;2022-08-01T00:24:18;19.80;99.90
18160;DHT22;9205;52.032;4.314;2022-08-01T00:26:45;19.90;99.90
18160;DHT22;9205;52.032;4.314;2022-08-01T00:29:12;19.70;99.90
18160;DHT22;9205;52.032;4.314;2022-08-01T00:31:40;19.80;99.90
18160;DHT22;9205;52.032;4.314;2022-08-01T00:34:07;19.80;99.90
18160;DHT22;9205;52.032;4.314;2022-08-01T00:36:38;19.70;99.90
18160;DHT22;9205;52.032;4.314;2022-08-01T00:39:05;19.80;99.90
18160;DHT22;9205;52.032;4.314;2022-08-01T00:41:33;19.70;99.90
18160;DHT22;9205;52.032;4.314;2022-08-01T00:44:03;19.70;99.90
18160;DHT22;9205;52.032;4.314;2022-08-01T00:46:31;19.80;99.90
18160;DHT22;9205;52.032;4.314;2022-08-01T00:48:59;19.60;99.90
18160;DHT22;9205;52.032;4.314;2022-08-01T00:51:27;19.60;99.90
18160;DHT22;9205;52.032;4.314;2022-08-01T00:53:56;19.70;99.90
18160;DHT22;9205;52.032;4.314;2022-08-01T00:56:25;19.70;99.90
18160;DHT22;9205;52.032;4.314;2022-08-01T00:58:55;19.80;99.90
18160;DHT22;9205;52.032;4.314;2022-08-01T01:01:22;19.80;99.90
18160;DHT22;9205;52.032;4.314;2022-08-01T01:03:50;19.70;99.90
18160;DHT22;9205;52.032;4.314;2022-08-01T01:06:26;19.70;99.90
18160;DHT22;9205;52.032;4.314;2022-08-01T01:09:21;19.60;99.90
18160;DHT22;9205;52.032;4.314;2022-08-01T01:12:09;19.80;99.90
18160;DHT22;9205;52.032;4.314;2022-08-01T01:14:45;19.80;99.90
18160;DHT22;9205;52.032;4.314;2022-08-01T01:17:26;19.80;99.90
18160;DHT22;9205;52.032;4.314;2022-08-01T01:20:00;19.50;99.90
18160;DHT22;9205;52.032;4.314;2022-08-01T01:22:53;19.60;99.90
18160;DHT22;9205;52.032;4.314;2022-08-01T01:31:19;19.60;99.90
18160;DHT22;9205;52.032;4.314;2022-08-01T01:33:49;19.60;99.90
18160;DHT22;9205;52.032;4.314;2022-08-01T01:36:19;19.50;99.90
18160;DHT22;9205;52.032;4.314;2022-08-01T01:38:49;19.40;99.90
18160;DHT22;9205;52.032;4.314;2022-08-01T01:41:20;19.50;99.90
18160;DHT22;9205;52.032;4.314;2022-08-01T01:43:52;19.60;99.90
18160;DHT22;9205;52.032;4.314;2022-08-01T01:46:23;19.50;99.90
18160;DHT22;9205;52.032;4.314;2022-08-01T01:48:53;19.60;99.90
18160;DHT22;9205;52.032;4.314;2022-08-01T01:51:24;19.60;99.90
18160;DHT22;9205;52.032;4.314;2022-08-01T01:53:54;19.40;99.90
18160;DHT22;9205;52.032;4.314;2022-08-01T01:56:23;19.50;99.90
18160;DHT22;9205;52.032;4.314;2022-08-01T01:58:54;19.40;99.90
18160;DHT22;9205;52.032;4.314;2022-08-01T02:01:28;19.50;99.90
18160;DHT22;9205;52.032;4.314;2022-08-01T02:04:01;19.60;99.90
18160;DHT22;9205;52.032;4.314;2022-08-01T02:06:31;19.40;99.90
18160;DHT22;9205;52.032;4.314;2022-08-01T02:09:01;19.40;99.90
18160;DHT22;9205;52.032;4.314;2022-08-01T02:11:29;19.50;99.90
18160;DHT22;9205;52.032;4.314;2022-08-01T02:14:01;19.60;99.90
18160;DHT22;9205;52.032;4.314;2022-08-01T02:16:33;19.40;99.90
18160;DHT22;9205;52.032;4.314;2022-08-01T02:19:06;19.40;99.90
18160;DHT22;9205;52.032;4.314;2022-08-01T02:21:38;19.30;99.90
18160;DHT22;9205;52.032;4.314;2022-08-01T02:24:13;19.50;99.90
18160;DHT22;9205;52.032;4.314;2022-08-01T02:26:49;19.60;99.90
18160;DHT22;9205;52.032;4.314;2022-08-01T02:29:24;19.30;99.90
18160;DHT22;9205;52.032;4.314;2022-08-01T02:32:00;19.30;99.90
18160;DHT22;9205;52.032;4.314;2022-08-01T02:34:32;19.30;99.90
18160;DHT22;9205;52.032;4.314;2022-08-01T02:37:03;19.40;99.90
18160;DHT22;9205;52.032;4.314;2022-08-01T02:39:32;19.40;99.90
18160;DHT22;9205;52.032;4.314;2022-08-01T02:42:06;19.40;99.90
18160;DHT22;9205;52.032;4.314;2022-08-01T02:44:37;19.30;99.90
18160;DHT22;9205;52.032;4.314;2022-08-01T02:47:08;19.20;99.90
18160;DHT22;9205;52.032;4.314;2022-08-01T02:49:39;19.40;99.90
18160;DHT22;9205;52.032;4.314;2022-08-01T02:52:13;19.30;99.90
18160;DHT22;9205;52.032;4.314;2022-08-01T02:54:44;19.20;99.90
18160;DHT22;9205;52.032;4.314;2022-08-01T02:57:13;19.50;99.90
18160;DHT22;9205;52.032;4.314;2022-08-01T02:59:44;19.30;99.90
18160;DHT22;9205;52.032;4.314;2022-08-01T03:02:14;19.20;99.90
18160;DHT22;9205;52.032;4.314;2022-08-01T03:04:44;19.20;99.90
18160;DHT22;9205;52.032;4.314;2022-08-01T03:07:12;19.30;99.90
18160;DHT22;9205;52.032;4.314;2022-08-01T03:09:45;19.30;99.90
18160;DHT22;9205;52.032;4.314;2022-08-01T03:12:18;19.50;99.90
18160;DHT22;9205;52.032;4.314;2022-08-01T03:14:51;19.30;99.90
18160;DHT22;9205;52.032;4.314;2022-08-01T03:17:24;19.50;99.90
18160;DHT22;9205;52.032;4.314;2022-08-01T03:19:54;19.40;99.90
18160;DHT22;9205;52.032;4.314;2022-08-01T03:22:24;19.40;99.90
18160;DHT22;9205;52.032;4.314;2022-08-01T03:24:56;19.20;99.90
18160;DHT22;9205;52.032;4.314;2022-08-01T03:27:25;19.30;99.90
18160;DHT22;9205;52.032;4.314;2022-08-01T03:29:55;19.50;99.90
18160;DHT22;9205;52.032;4.314;2022-08-01T03:32:25;19.40;99.90
18160;DHT22;9205;52.032;4.314;2022-08-01T03:34:54;19.50;99.90
18160;DHT22;9205;52.032;4.314;2022-08-01T03:37:25;19.30;99.90
18160;DHT22;9205;52.032;4.314;2022-08-01T03:39:57;19.40;99.90
18160;DHT22;9205;52.032;4.314;2022-08-01T03:42:33;19.50;99.90
18160;DHT22;9205;52.032;4.314;2022-08-01T03:45:08;19.60;99.90
18160;DHT22;9205;52.032;4.314;2022-08-01T03:47:42;19.30;99.90
18160;DHT22;9205;52.032;4.314;2022-08-01T03:50:11;19.30;99.90
18160;DHT22;9205;52.032;4.314;2022-08-01T03:52:43;19.50;99.90
18160;DHT22;9205;52.032;4.314;2022-08-01T03:55:13;19.40;99.90
18160;DHT22;9205;52.032;4.314;2022-08-01T03:57:43;19.30;99.90
18160;DHT22;9205;52.032;4.314;2022-08-01T04:00:14;19.50;99.90
18160;DHT22;9205;52.032;4.314;2022-08-01T04:02:45;19.30;99.90
18160;DHT22;9205;52.032;4.314;2022-08-01T04:05:13;19.30;99.90
18160;DHT22;9205;52.032;4.314;2022-08-01T04:07:46;19.40;99.90
18160;DHT22;9205;52.032;4.314;2022-08-01T04:10:16;19.30;99.90
18160;DHT22;9205;52.032;4.314;2022-08-01T04:12:43;19.50;99.90
18160;DHT22;9205;52.032;4.314;2022-08-01T04:15:10;19.50;99.90
18160;DHT22;9205;52.032;4.314;2022-08-01T04:17:39;19.30;99.90
18160;DHT22;9205;52.032;4.314;2022-08-01T04:20:07;19.50;99.90
18160;DHT22;9205;52.032;4.314;2022-08-01T04:22:34;19.40;99.90
18160;DHT22;9205;52.032;4.314;2022-08-01T04:25:09;19.40;99.90
18160;DHT22;9205;52.032;4.314;2022-08-01T04:27:44;19.30;99.90
18160;DHT22;9205;52.032;4.314;2022-08-01T04:30:14;19.40;99.90
18160;DHT22;9205;52.032;4.314;2022-08-01T04:32:45;19.40;99.90
18160;DHT22;9205;52.032;4.314;2022-08-01T04:35:16;19.50;99.90
18160;DHT22;9205;52.032;4.314;2022-08-01T04:37:47;19.30;99.90
18160;DHT22;9205;52.032;4.314;2022-08-01T04:40:17;19.50;99.90
18160;DHT22;9205;52.032;4.314;2022-08-01T04:42:47;19.70;99.90
18160;DHT22;9205;52.032;4.314;2022-08-01T04:45:16;19.50;99.90
18160;DHT22;9205;52.032;4.314;2022-08-01T04:47:45;19.50;99.90
18160;DHT22;9205;52.032;4.314;2022-08-01T04:50:13;19.40;99.90
18160;DHT22;9205;52.032;4.314;2022-08-01T04:52:41;19.70;99.90
18160;DHT22;9205;52.032;4.314;2022-08-01T04:55:09;19.40;99.90
18160;DHT22;9205;52.032;4.314;2022-08-01T04:57:40;19.60;99.90
18160;DHT22;9205;52.032;4.314;2022-08-01T05:00:09;19.50;99.90
18160;DHT22;9205;52.032;4.314;2022-08-01T05:02:37;19.70;99.90
18160;DHT22;9205;52.032;4.314;2022-08-01T05:05:06;19.70;99.90
18160;DHT22;9205;52.032;4.314;2022-08-01T05:07:36;19.50;99.90
18160;DHT22;9205;52.032;4.314;2022-08-01T05:10:04;19.70;99.90
18160;DHT22;9205;52.032;4.314;2022-08-01T05:12:32;19.70;99.90
18160;DHT22;9205;52.032;4.314;2022-08-01T05:14:59;19.60;99.90
18160;DHT22;9205;52.032;4.314;2022-08-01T05:17:27;19.70;99.90
18160;DHT22;9205;52.032;4.314;2022-08-01T05:19:54;19.60;99.90
18160;DHT22;9205;52.032;4.314;2022-08-01T05:22:22;19.70;99.90
18160;DHT22;9205;52.032;4.314;2022-08-01T05:24:51;19.70;99.90
18160;DHT22;9205;52.032;4.314;2022-08-01T05:27:19;19.70;99.90
18160;DHT22;9205;52.032;4.314;2022-08-01T05:29:46;19.70;99.90
18160;DHT22;9205;52.032;4.314;2022-08-01T05:32:13;19.60;99.90
18160;DHT22;9205;52.032;4.314;2022-08-01T05:34:41;19.80;99.90
18160;DHT22;9205;52.032;4.314;2022-08-01T05:37:08;19.70;99.90
18160;DHT22;9205;52.032;4.314;2022-08-01T05:39:37;19.60;99.90
18160;DHT22;9205;52.032;4.314;2022-08-01T05:42:04;19.60;99.90
18160;DHT22;9205;52.032;4.314;2022-08-01T05:44:32;19.40;99.90
18160;DHT22;9205;52.032;4.314;2022-08-01T05:46:59;19.70;99.90
18160;DHT22;9205;52.032;4.314;2022-08-01T05:49:28;19.50;99.90
18160;DHT22;9205;52.032;4.314;2022-08-01T05:51:55;19.30;99.90
18160;DHT22;9205;52.032;4.314;2022-08-01T05:54:23;19.50;99.90
18160;DHT22;9205;52.032;4.314;2022-08-01T05:56:51;19.50;99.90
18160;DHT22;9205;52.032;4.314;2022-08-01T05:59:19;19.60;99.90
18160;DHT22;9205;52.032;4.314;2022-08-01T06:01:46;19.40;99.90
18160;DHT22;9205;52.032;4.314;2022-08-01T06:04:13;19.60;99.90
18160;DHT22;9205;52.032;4.314;2022-08-01T06:06:40;19.50;99.90
18160;DHT22;9205;52.032;4.314;2022-08-01T06:09:08;19.20;99.90
18160;DHT22;9205;52.032;4.314;2022-08-01T06:11:35;19.20;99.90
18160;DHT22;9205;52.032;4.314;2022-08-01T06:14:04;19.20;99.90
18160;DHT22;9205;52.032;4.314;2022-08-01T06:16:31;19.10;99.90
18160;DHT22;9205;52.032;4.314;2022-08-01T06:18:59;19.10;99.90
18160;DHT22;9205;52.032;4.314;2022-08-01T06:21:26;19.30;99.90
18160;DHT22;9205;52.032;4.314;2022-08-01T06:23:53;19.40;99.90
18160;DHT22;9205;52.032;4.314;2022-08-01T06:26:21;19.20;99.90
18160;DHT22;9205;52.032;4.314;2022-08-01T06:28:57;19.50;99.90
18160;DHT22;9205;52.032;4.314;2022-08-01T06:31:26;19.30;99.90
18160;DHT22;9205;52.032;4.314;2022-08-01T06:33:53;19.40;99.90
18160;DHT22;9205;52.032;4.314;2022-08-01T06:36:22;19.40;99.90
18160;DHT22;9205;52.032;4.314;2022-08-01T06:38:51;19.60;99.90
18160;DHT22;9205;52.032;4.314;2022-08-01T06:41:20;19.30;99.90
18160;DHT22;9205;52.032;4.314;2022-08-01T06:43:47;19.30;99.90
18160;DHT22;9205;52.032;4.314;2022-08-01T06:46:14;19.40;99.90
18160;DHT22;9205;52.032;4.314;2022-08-01T06:48:43;19.20;99.90
18160;DHT22;9205;52.032;4.314;2022-08-01T06:51:10;19.10;99.90
18160;DHT22;9205;52.032;4.314;2022-08-01T06:53:41;19.20;99.90
18160;DHT22;9205;52.032;4.314;2022-08-01T06:56:08;19.60;99.90
18160;DHT22;9205;52.032;4.314;2022-08-01T06:58:35;19.50;99.90
18160;DHT22;9205;52.032;4.314;2022-08-01T07:01:04;19.30;99.90
18160;DHT22;9205;52.032;4.314;2022-08-01T07:03:33;19.60;99.90
18160;DHT22;9205;52.032;4.314;2022-08-01T07:06:02;19.20;99.90
18160;DHT22;9205;52.032;4.314;2022-08-01T07:08:29;19.30;99.90
18160;DHT22;9205;52.032;4.314;2022-08-01T07:10:57;19.60;99.90
18160;DHT22;9205;52.032;4.314;2022-08-01T07:13:25;19.50;99.90
18160;DHT22;9205;52.032;4.314;2022-08-01T07:15:53;19.40;99.90
18160;DHT22;9205;52.032;4.314;2022-08-01T07:18:20;19.50;99.90
18160;DHT22;9205;52.032;4.314;2022-08-01T07:20:48;19.50;99.90
18160;DHT22;9205;52.032;4.314;2022-08-01T07:23:17;19.40;99.90
18160;DHT22;9205;52.032;4.314;2022-08-01T07:25:45;19.50;99.90
18160;DHT22;9205;52.032;4.314;2022-08-01T07:28:14;19.60;99.90
18160;DHT22;9205;52.032;4.314;2022-08-01T07:30:41;19.80;99.90
18160;DHT22;9205;52.032;4.314;2022-08-01T07:33:10;19.50;99.90
18160;DHT22;9205;52.032;4.314;2022-08-01T07:35:37;19.50;99.90
18160;DHT22;9205;52.032;4.314;2022-08-01T07:38:05;19.40;99.90
18160;DHT22;9205;52.032;4.314;2022-08-01T07:40:33;19.50;99.90
18160;DHT22;9205;52.032;4.314;2022-08-01T07:43:01;19.40;99.90
18160;DHT22;9205;52.032;4.314;2022-08-01T07:45:28;19.40;99.90
18160;DHT22;9205;52.032;4.314;2022-08-01T07:48:01;19.30;99.90
18160;DHT22;9205;52.032;4.314;2022-08-01T07:50:29;19.50;99.90
18160;DHT22;9205;52.032;4.314;2022-08-01T07:52:58;19.30;99.90
18160;DHT22;9205;52.032;4.314;2022-08-01T07:55:25;19.40;99.90
18160;DHT22;9205;52.032;4.314;2022-08-01T07:57:54;19.10;99.90
18160;DHT22;9205;52.032;4.314;2022-08-01T08:00:21;19.30;99.90
18160;DHT22;9205;52.032;4.314;2022-08-01T08:02:50;19.30;99.90
18160;DHT22;9205;52.032;4.314;2022-08-01T08:05:17;19.30;99.90
18160;DHT22;9205;52.032;4.314;2022-08-01T08:07:45;19.00;99.90
18160;DHT22;9205;52.032;4.314;2022-08-01T08:10:12;19.10;99.90
18160;DHT22;9205;52.032;4.314;2022-08-01T08:12:39;19.30;99.90
18160;DHT22;9205;52.032;4.314;2022-08-01T08:15:09;19.10;99.90
18160;DHT22;9205;52.032;4.314;2022-08-01T08:17:36;19.50;99.90
18160;DHT22;9205;52.032;4.314;2022-08-01T08:20:05;19.20;99.90
18160;DHT22;9205;52.032;4.314;2022-08-01T08:22:36;19.20;99.90
18160;DHT22;9205;52.032;4.314;2022-08-01T08:25:05;19.30;99.90
18160;DHT22;9205;52.032;4.314;2022-08-01T08:27:39;19.30;99.90
18160;DHT22;9205;52.032;4.314;2022-08-01T08:30:08;19.30;99.90
18160;DHT22;9205;52.032;4.314;2022-08-01T08:32:37;19.40;99.90
18160;DHT22;9205;52.032;4.314;2022-08-01T08:35:05;19.30;99.90
18160;DHT22;9205;52.032;4.314;2022-08-01T08:37:34;19.70;99.90
18160;DHT22;9205;52.032;4.314;2022-08-01T08:40:05;19.50;99.90
18160;DHT22;9205;52.032;4.314;2022-08-01T08:42:34;19.80;99.90
18160;DHT22;9205;52.032;4.314;2022-08-01T08:45:02;19.80;99.90
18160;DHT22;9205;52.032;4.314;2022-08-01T08:47:34;19.80;99.90
18160;DHT22;9205;52.032;4.314;2022-08-01T08:50:03;20.00;99.90
18160;DHT22;9205;52.032;4.314;2022-08-01T08:52:35;20.10;99.90
18160;DHT22;9205;52.032;4.314;2022-08-01T08:55:06;20.00;99.90
18160;DHT22;9205;52.032;4.314;2022-08-01T08:57:35;19.90;99.90
18160;DHT22;9205;52.032;4.314;2022-08-01T09:00:03;19.60;99.90
18160;DHT22;9205;52.032;4.314;2022-08-01T09:02:33;19.40;99.90
18160;DHT22;9205;52.032;4.314;2022-08-01T09:05:01;19.50;99.90
18160;DHT22;9205;52.032;4.314;2022-08-01T09:07:29;19.40;99.90
18160;DHT22;9205;52.032;4.314;2022-08-01T09:09:56;19.40;99.90
18160;DHT22;9205;52.032;4.314;2022-08-01T09:12:23;19.60;99.90
18160;DHT22;9205;52.032;4.314;2022-08-01T09:14:50;19.60;99.90
18160;DHT22;9205;52.032;4.314;2022-08-01T09:17:19;19.30;99.90
18160;DHT22;9205;52.032;4.314;2022-08-01T09:19:50;19.40;99.90
18160;DHT22;9205;52.032;4.314;2022-08-01T09:22:20;19.50;99.90
18160;DHT22;9205;52.032;4.314;2022-08-01T09:25:00;19.50;99.90
18160;DHT22;9205;52.032;4.314;2022-08-01T09:27:30;19.40;99.90
18160;DHT22;9205;52.032;4.314;2022-08-01T09:30:09;19.50;99.90
18160;DHT22;9205;52.032;4.314;2022-08-01T09:32:53;19.70;99.90
18160;DHT22;9205;52.032;4.314;2022-08-01T09:35:27;19.60;99.90
18160;DHT22;9205;52.032;4.314;2022-08-01T09:38:16;19.80;99.90
18160;DHT22;9205;52.032;4.314;2022-08-01T09:40:53;19.80;99.90
18160;DHT22;9205;52.032;4.314;2022-08-01T09:43:23;19.80;99.90
18160;DHT22;9205;52.032;4.314;2022-08-01T09:45:53;19.80;99.90
18160;DHT22;9205;52.032;4.314;2022-08-01T09:48:24;20.00;99.90
18160;DHT22;9205;52.032;4.314;2022-08-01T09:50:54;20.00;99.90
18160;DHT22;9205;52.032;4.314;2022-08-01T09:53:21;20.00;99.90
18160;DHT22;9205;52.032;4.314;2022-08-01T09:55:48;20.00;99.90
18160;DHT22;9205;52.032;4.314;2022-08-01T09:58:18;20.10;99.90
18160;DHT22;9205;52.032;4.314;2022-08-01T10:00:58;19.90;99.90
18160;DHT22;9205;52.032;4.314;2022-08-01T10:03:27;20.00;99.90
18160;DHT22;9205;52.032;4.314;2022-08-01T10:05:56;20.10;99.90
18160;DHT22;9205;52.032;4.314;2022-08-01T10:08:24;20.20;99.90
18160;DHT22;9205;52.032;4.314;2022-08-01T10:11:08;20.20;99.90
18160;DHT22;9205;52.032;4.314;2022-08-01T10:13:36;20.40;99.90
18160;DHT22;9205;52.032;4.314;2022-08-01T10:16:05;20.40;99.90
18160;DHT22;9205;52.032;4.314;2022-08-01T10:18:34;20.50;99.90
18160;DHT22;9205;52.032;4.314;2022-08-01T10:21:04;20.50;99.90
18160;DHT22;9205;52.032;4.314;2022-08-01T10:23:36;20.50;99.90
18160;DHT22;9205;52.032;4.314;2022-08-01T10:26:05;20.40;99.90
18160;DHT22;9205;52.032;4.314;2022-08-01T10:28:35;20.50;99.90
18160;DHT22;9205;52.032;4.314;2022-08-01T10:31:05;20.60;99.90
18160;DHT22;9205;52.032;4.314;2022-08-01T10:33:34;20.60;99.90
18160;DHT22;9205;52.032;4.314;2022-08-01T10:36:07;20.60;99.90
18160;DHT22;9205;52.032;4.314;2022-08-01T10:38:35;20.60;99.90
18160;DHT22;9205;52.032;4.314;2022-08-01T10:41:03;20.70;99.90
18160;DHT22;9205;52.032;4.314;2022-08-01T10:43:31;20.80;99.90
18160;DHT22;9205;52.032;4.314;2022-08-01T10:45:58;20.60;99.90
18160;DHT22;9205;52.032;4.314;2022-08-01T10:48:31;20.70;99.90
18160;DHT22;9205;52.032;4.314;2022-08-01T10:51:08;20.70;99.90
18160;DHT22;9205;52.032;4.314;2022-08-01T10:53:35;20.80;99.90
18160;DHT22;9205;52.032;4.314;2022-08-01T10:56:03;20.90;99.90
18160;DHT22;9205;52.032;4.314;2022-08-01T10:58:32;21.10;99.90
18160;DHT22;9205;52.032;4.314;2022-08-01T11:01:16;21.30;99.90
18160;DHT22;9205;52.032;4.314;2022-08-01T11:04:00;21.30;99.90
18160;DHT22;9205;52.032;4.314;2022-08-01T11:06:43;21.30;99.90
18160;DHT22;9205;52.032;4.314;2022-08-01T11:09:30;21.50;99.90
18160;DHT22;9205;52.032;4.314;2022-08-01T11:12:12;21.50;99.90
18160;DHT22;9205;52.032;4.314;2022-08-01T11:15:18;21.70;99.90
18160;DHT22;9205;52.032;4.314;2022-08-01T11:17:57;21.90;99.90
18160;DHT22;9205;52.032;4.314;2022-08-01T11:20:27;22.20;99.90
18160;DHT22;9205;52.032;4.314;2022-08-01T11:23:25;22.40;99.90
18160;DHT22;9205;52.032;4.314;2022-08-01T11:26:11;22.00;99.90
18160;DHT22;9205;52.032;4.314;2022-08-01T11:28:44;22.20;99.90
18160;DHT22;9205;52.032;4.314;2022-08-01T11:31:29;22.30;99.90
18160;DHT22;9205;52.032;4.314;2022-08-01T11:33:58;22.20;99.90
18160;DHT22;9205;52.032;4.314;2022-08-01T11:36:27;22.10;99.90
18160;DHT22;9205;52.032;4.314;2022-08-01T11:39:14;22.10;99.90
18160;DHT22;9205;52.032;4.314;2022-08-01T11:41:44;22.10;99.90
18160;DHT22;9205;52.032;4.314;2022-08-01T11:44:16;22.00;99.90
18160;DHT22;9205;52.032;4.314;2022-08-01T11:46:46;22.10;99.90
18160;DHT22;9205;52.032;4.314;2022-08-01T11:52:25;22.00;99.90
18160;DHT22;9205;52.032;4.314;2022-08-01T11:54:57;22.30;99.90
18160;DHT22;9205;52.032;4.314;2022-08-01T11:57:32;22.30;99.90
18160;DHT22;9205;52.032;4.314;2022-08-01T12:00:10;22.20;99.90
18160;DHT22;9205;52.032;4.314;2022-08-01T12:02:38;22.40;99.90
18160;DHT22;9205;52.032;4.314;2022-08-01T12:05:07;22.30;99.90
18160;DHT22;9205;52.032;4.314;2022-08-01T12:07:38;22.40;99.90
18160;DHT22;9205;52.032;4.314;2022-08-01T12:10:09;22.50;99.90
18160;DHT22;9205;52.032;4.314;2022-08-01T12:12:43;22.50;99.90
18160;DHT22;9205;52.032;4.314;2022-08-01T12:15:12;22.40;99.90
18160;DHT22;9205;52.032;4.314;2022-08-01T12:17:41;22.20;99.90
18160;DHT22;9205;52.032;4.314;2022-08-01T12:20:11;22.30;99.90
18160;DHT22;9205;52.032;4.314;2022-08-01T12:22:42;22.40;99.90
18160;DHT22;9205;52.032;4.314;2022-08-01T12:25:13;22.50;99.90
18160;DHT22;9205;52.032;4.314;2022-08-01T12:27:44;22.50;99.90
18160;DHT22;9205;52.032;4.314;2022-08-01T12:30:13;22.50;99.90
18160;DHT22;9205;52.032;4.314;2022-08-01T12:32:42;22.50;99.90
18160;DHT22;9205;52.032;4.314;2022-08-01T12:35:13;22.50;99.90
18160;DHT22;9205;52.032;4.314;2022-08-01T12:37:43;22.50;99.90
18160;DHT22;9205;52.032;4.314;2022-08-01T12:40:15;22.50;99.90
18160;DHT22;9205;52.032;4.314;2022-08-01T12:42:45;22.40;99.90
18160;DHT22;9205;52.032;4.314;2022-08-01T12:45:15;22.60;99.90
18160;DHT22;9205;52.032;4.314;2022-08-01T12:47:48;22.80;99.90
18160;DHT22;9205;52.032;4.314;2022-08-01T12:50:19;22.90;99.90
18160;DHT22;9205;52.032;4.314;2022-08-01T12:52:50;22.70;99.90
18160;DHT22;9205;52.032;4.314;2022-08-01T12:55:20;22.80;99.90
18160;DHT22;9205;52.032;4.314;2022-08-01T12:57:59;22.70;99.90
18160;DHT22;9205;52.032;4.314;2022-08-01T13:00:32;22.90;99.90
18160;DHT22;9205;52.032;4.314;2022-08-01T13:03:04;22.90;99.90
18160;DHT22;9205;52.032;4.314;2022-08-01T13:05:44;22.80;99.90
18160;DHT22;9205;52.032;4.314;2022-08-01T13:08:17;22.80;99.90
18160;DHT22;9205;52.032;4.314;2022-08-01T13:10:47;22.70;99.90
18160;DHT22;9205;52.032;4.314;2022-08-01T13:13:17;22.90;99.90
18160;DHT22;9205;52.032;4.314;2022-08-01T13:15:45;22.80;99.90
18160;DHT22;9205;52.032;4.314;2022-08-01T13:18:31;23.00;99.90
18160;DHT22;9205;52.032;4.314;2022-08-01T13:21:10;22.90;99.90
18160;DHT22;9205;52.032;4.314;2022-08-01T13:23:40;23.00;99.90
18160;DHT22;9205;52.032;4.314;2022-08-01T13:26:09;23.00;99.90
18160;DHT22;9205;52.032;4.314;2022-08-01T13:28:36;23.20;99.90
18160;DHT22;9205;52.032;4.314;2022-08-01T13:31:05;23.30;99.90
18160;DHT22;9205;52.032;4.314;2022-08-01T13:33:42;23.50;99.90
18160;DHT22;9205;52.032;4.314;2022-08-01T13:36:14;23.60;99.90
18160;DHT22;9205;52.032;4.314;2022-08-01T13:38:42;23.70;99.90
18160;DHT22;9205;52.032;4.314;2022-08-01T13:41:28;23.40;99.90
18160;DHT22;9205;52.032;4.314;2022-08-01T13:43:55;23.60;99.90
18160;DHT22;9205;52.032;4.314;2022-08-01T13:46:22;23.50;99.90
18160;DHT22;9205;52.032;4.314;2022-08-01T13:48:49;23.50;99.90
18160;DHT22;9205;52.032;4.314;2022-08-01T13:51:17;23.70;99.90
18160;DHT22;9205;52.032;4.314;2022-08-01T13:53:44;23.90;99.90
18160;DHT22;9205;52.032;4.314;2022-08-01T13:56:12;23.90;99.90
18160;DHT22;9205;52.032;4.314;2022-08-01T13:58:43;23.80;99.90
18160;DHT22;9205;52.032;4.314;2022-08-01T14:01:10;23.70;99.90
18160;DHT22;9205;52.032;4.314;2022-08-01T14:03:38;23.60;99.90
18160;DHT22;9205;52.032;4.314;2022-08-01T14:06:05;23.60;99.90
18160;DHT22;9205;52.032;4.314;2022-08-01T14:08:33;23.50;99.90
18160;DHT22;9205;52.032;4.314;2022-08-01T14:11:00;23.50;99.90
18160;DHT22;9205;52.032;4.314;2022-08-01T14:13:28;23.70;99.90
18160;DHT22;9205;52.032;4.314;2022-08-01T14:15:56;24.00;99.90
18160;DHT22;9205;52.032;4.314;2022-08-01T14:18:24;24.10;99.90
18160;DHT22;9205;52.032;4.314;2022-08-01T14:20:51;24.20;99.90
18160;DHT22;9205;52.032;4.314;2022-08-01T14:23:18;24.20;99.90
18160;DHT22;9205;52.032;4.314;2022-08-01T14:25:46;24.30;99.90
18160;DHT22;9205;52.032;4.314;2022-08-01T14:28:13;24.30;99.90
18160;DHT22;9205;52.032;4.314;2022-08-01T14:30:40;24.30;99.90
18160;DHT22;9205;52.032;4.314;2022-08-01T14:33:10;24.30;99.90
18160;DHT22;9205;52.032;4.314;2022-08-01T14:35:38;24.40;99.90
18160;DHT22;9205;52.032;4.314;2022-08-01T14:38:06;24.10;99.90
18160;DHT22;9205;52.032;4.314;2022-08-01T14:40:34;24.10;99.90
18160;DHT22;9205;52.032;4.314;2022-08-01T14:43:01;24.30;99.90
18160;DHT22;9205;52.032;4.314;2022-08-01T14:45:28;24.20;99.90
18160;DHT22;9205;52.032;4.314;2022-08-01T14:47:59;24.10;99.90
18160;DHT22;9205;52.032;4.314;2022-08-01T14:50:27;24.10;99.90
18160;DHT22;9205;52.032;4.314;2022-08-01T14:52:54;24.20;99.90
18160;DHT22;9205;52.032;4.314;2022-08-01T14:55:22;24.10;99.90
18160;DHT22;9205;52.032;4.314;2022-08-01T14:57:52;24.20;99.90
18160;DHT22;9205;52.032;4.314;2022-08-01T15:00:20;24.10;99.90
18160;DHT22;9205;52.032;4.314;2022-08-01T15:02:48;24.10;99.90
18160;DHT22;9205;52.032;4.314;2022-08-01T15:05:15;24.10;99.90
18160;DHT22;9205;52.032;4.314;2022-08-01T15:07:44;24.10;99.90
18160;DHT22;9205;52.032;4.314;2022-08-01T15:10:11;24.20;99.90
18160;DHT22;9205;52.032;4.314;2022-08-01T15:12:39;24.20;99.90
18160;DHT22;9205;52.032;4.314;2022-08-01T15:15:07;24.20;99.90
18160;DHT22;9205;52.032;4.314;2022-08-01T15:17:35;24.10;99.90
18160;DHT22;9205;52.032;4.314;2022-08-01T15:20:05;24.20;99.90
18160;DHT22;9205;52.032;4.314;2022-08-01T15:22:33;24.30;99.90
18160;DHT22;9205;52.032;4.314;2022-08-01T15:25:03;24.30;99.90
18160;DHT22;9205;52.032;4.314;2022-08-01T15:27:31;24.30;99.90
18160;DHT22;9205;52.032;4.314;2022-08-01T15:29:59;24.30;99.90
18160;DHT22;9205;52.032;4.314;2022-08-01T15:32:28;24.30;99.90
18160;DHT22;9205;52.032;4.314;2022-08-01T15:34:56;24.40;99.90
18160;DHT22;9205;52.032;4.314;2022-08-01T15:37:23;24.40;99.90
18160;DHT22;9205;52.032;4.314;2022-08-01T15:39:50;24.10;99.90
18160;DHT22;9205;52.032;4.314;2022-08-01T15:42:19;24.10;99.90
18160;DHT22;9205;52.032;4.314;2022-08-01T15:44:46;24.20;99.90
18160;DHT22;9205;52.032;4.314;2022-08-01T15:47:13;24.40;99.90
18160;DHT22;9205;52.032;4.314;2022-08-01T15:49:41;24.40;99.90
18160;DHT22;9205;52.032;4.314;2022-08-01T15:52:09;24.30;99.90
18160;DHT22;9205;52.032;4.314;2022-08-01T15:54:36;24.40;99.90
18160;DHT22;9205;52.032;4.314;2022-08-01T15:57:06;24.20;99.90
18160;DHT22;9205;52.032;4.314;2022-08-01T15:59:35;24.20;99.90
18160;DHT22;9205;52.032;4.314;2022-08-01T16:02:02;24.20;99.90
18160;DHT22;9205;52.032;4.314;2022-08-01T16:04:30;24.20;99.90
18160;DHT22;9205;52.032;4.314;2022-08-01T16:06:57;24.20;99.90
18160;DHT22;9205;52.032;4.314;2022-08-01T16:09:24;24.10;99.90
18160;DHT22;9205;52.032;4.314;2022-08-01T16:11:52;24.20;99.90
18160;DHT22;9205;52.032;4.314;2022-08-01T16:14:19;24.00;99.90